createdAt,value
2018-07-28T00:00:28.827Z,25.09
2018-07-28T00:02:57.485Z,25.04
2018-07-28T00:05:26.132Z,25.04
2018-07-28T00:07:54.772Z,25.00
2018-07-28T00:10:23.428Z,24.86
2018-07-28T00:12:52.033Z,24.96
2018-07-28T00:15:20.715Z,24.86
2018-07-28T00:17:49.357Z,24.78
2018-07-28T00:20:18.002Z,24.80
2018-07-28T00:22:46.647Z,24.86
2018-07-28T00:25:15.295Z,24.87
2018-07-28T00:27:43.913Z,24.82
2018-07-28T00:30:13.547Z,24.60
2018-07-28T00:32:42.209Z,24.70
2018-07-28T00:35:10.877Z,24.65
2018-07-28T00:37:39.562Z,24.49
2018-07-28T00:40:08.820Z,24.55
2018-07-28T00:42:37.836Z,24.52
2018-07-28T00:45:06.986Z,24.58
2018-07-28T00:47:35.680Z,24.57
2018-07-28T00:50:04.967Z,24.57
2018-07-28T00:52:33.652Z,24.59
2018-07-28T00:55:02.261Z,24.31
2018-07-28T00:57:30.837Z,24.48
2018-07-28T00:59:59.558Z,24.50
2018-07-28T01:02:28.169Z,24.39
2018-07-28T01:04:56.869Z,24.41
2018-07-28T01:07:25.480Z,24.43
2018-07-28T01:09:54.188Z,24.44
2018-07-28T01:12:22.818Z,24.35
2018-07-28T01:14:51.703Z,24.37
2018-07-28T01:17:20.819Z,24.34
2018-07-28T01:19:49.502Z,24.29
2018-07-28T01:22:18.251Z,24.31
2018-07-28T01:24:47.575Z,24.30
2018-07-28T01:27:16.162Z,24.30
2018-07-28T01:29:44.896Z,24.33
2018-07-28T01:32:13.506Z,24.29
2018-07-28T01:34:42.117Z,24.30
2018-07-28T01:37:11.120Z,24.24
2018-07-28T01:39:39.792Z,24.25
2018-07-28T01:42:08.404Z,24.22
2018-07-28T01:44:37.055Z,24.16
2018-07-28T01:47:05.720Z,24.11
2018-07-28T01:49:34.311Z,24.05
2018-07-28T01:52:02.874Z,24.01
2018-07-28T01:54:31.485Z,24.06
2018-07-28T01:57:00.090Z,24.07
2018-07-28T01:59:28.711Z,24.06
2018-07-28T02:01:57.352Z,24.05
2018-07-28T02:04:26.326Z,23.98
2018-07-28T02:06:54.916Z,23.98
2018-07-28T02:09:23.516Z,23.98
2018-07-28T02:11:52.128Z,23.93
2018-07-28T02:14:20.847Z,23.86
2018-07-28T02:16:49.547Z,23.80
2018-07-28T02:19:18.201Z,23.84
2018-07-28T02:21:46.840Z,23.77
2018-07-28T02:24:15.431Z,23.77
2018-07-28T02:26:44.339Z,23.72
2018-07-28T02:29:13.000Z,23.69
2018-07-28T02:31:42.124Z,23.61
2018-07-28T02:34:10.858Z,23.51
2018-07-28T02:36:39.484Z,23.49
2018-07-28T02:39:10.142Z,23.48
2018-07-28T02:41:39.081Z,23.51
2018-07-28T02:44:08.162Z,23.43
2018-07-28T02:46:37.169Z,23.37
2018-07-28T02:49:06.290Z,23.37
2018-07-28T02:51:34.898Z,23.32
2018-07-28T02:54:03.654Z,23.32
2018-07-28T02:56:39.677Z,23.25
2018-07-28T02:59:08.300Z,23.27
2018-07-28T03:01:36.908Z,23.23
2018-07-28T03:04:05.794Z,23.18
2018-07-28T03:06:34.535Z,23.26
2018-07-28T03:09:03.408Z,23.24
2018-07-28T03:11:32.099Z,23.15
2018-07-28T03:14:00.922Z,23.02
2018-07-28T03:16:30.563Z,23.04
2018-07-28T03:18:59.143Z,23.05
2018-07-28T03:21:27.696Z,23.05
2018-07-28T03:23:56.827Z,23.03
2018-07-28T03:26:25.415Z,23.07
2018-07-28T03:28:54.176Z,23.07
2018-07-28T03:31:22.899Z,23.02
2018-07-28T03:33:51.861Z,22.99
2018-07-28T03:36:20.433Z,23.00
2018-07-28T03:38:49.380Z,22.94
2018-07-28T03:41:18.007Z,22.83
2018-07-28T03:43:46.627Z,22.71
2018-07-28T03:46:15.274Z,22.63
2018-07-28T03:48:43.858Z,22.64
2018-07-28T03:51:12.451Z,22.64
2018-07-28T03:53:41.277Z,22.59
2018-07-28T03:56:09.982Z,22.64
2018-07-28T03:58:38.579Z,22.14
2018-07-28T04:01:07.289Z,22.44
2018-07-28T04:03:35.871Z,22.48
2018-07-28T04:06:04.500Z,22.50
2018-07-28T04:08:33.065Z,22.55
2018-07-28T04:11:01.702Z,22.56
2018-07-28T04:13:30.547Z,22.61
2018-07-28T04:15:59.165Z,22.64
2018-07-28T04:18:27.749Z,22.66
2018-07-28T04:20:56.509Z,22.63
2018-07-28T04:23:25.082Z,22.54
2018-07-28T04:25:53.775Z,22.45
2018-07-28T04:28:22.547Z,22.50
2018-07-28T04:30:52.169Z,22.55
2018-07-28T04:33:20.762Z,22.56
2018-07-28T04:35:49.311Z,22.60
2018-07-28T04:38:17.969Z,22.70
2018-07-28T04:40:46.943Z,22.70
2018-07-28T04:43:15.543Z,22.77
2018-07-28T04:45:44.148Z,22.78
2018-07-28T04:48:13.157Z,22.80
2018-07-28T04:50:41.889Z,22.92
2018-07-28T04:53:10.477Z,22.90
2018-07-28T04:55:39.097Z,23.04
2018-07-28T04:58:08.261Z,23.12
2018-07-28T05:00:36.828Z,23.18
2018-07-28T05:03:05.466Z,23.26
2018-07-28T05:05:34.675Z,23.27
2018-07-28T05:08:03.408Z,23.31
2018-07-28T05:10:32.025Z,23.32
2018-07-28T05:13:00.651Z,23.39
2018-07-28T05:15:29.236Z,23.46
2018-07-28T05:17:57.989Z,23.52
2018-07-28T05:20:26.595Z,23.56
2018-07-28T05:22:55.200Z,23.46
2018-07-28T05:25:23.853Z,23.34
2018-07-28T05:27:52.443Z,23.23
2018-07-28T05:30:21.104Z,23.21
2018-07-28T05:32:49.714Z,23.18
2018-07-28T05:35:18.291Z,23.20
2018-07-28T05:37:47.072Z,23.15
2018-07-28T05:40:15.664Z,23.20
2018-07-28T05:42:44.339Z,23.20
2018-07-28T05:45:12.984Z,23.27
2018-07-28T05:47:41.540Z,23.17
2018-07-28T05:50:10.483Z,23.28
2018-07-28T05:52:39.143Z,23.44
2018-07-28T05:55:08.293Z,23.36
2018-07-28T05:57:37.632Z,23.29
2018-07-28T06:00:07.630Z,23.34
2018-07-28T06:02:36.494Z,23.41
2018-07-28T06:05:06.324Z,23.50
2018-07-28T06:07:35.049Z,23.48
2018-07-28T06:10:04.482Z,23.62
2018-07-28T06:12:33.175Z,23.72
2018-07-28T06:15:01.882Z,23.82
2018-07-28T06:17:30.498Z,24.09
2018-07-28T06:19:59.142Z,24.27
2018-07-28T06:22:27.901Z,24.53
2018-07-28T06:24:56.781Z,24.77
2018-07-28T06:27:25.408Z,24.87
2018-07-28T06:29:53.979Z,24.97
2018-07-28T06:32:22.689Z,25.20
2018-07-28T06:34:51.673Z,25.39
2018-07-28T06:37:20.360Z,25.62
2018-07-28T06:39:48.997Z,25.81
2018-07-28T06:42:17.619Z,25.79
2018-07-28T06:44:46.300Z,25.78
2018-07-28T06:47:14.933Z,25.82
2018-07-28T06:49:43.570Z,26.07
2018-07-28T06:52:12.316Z,26.30
2018-07-28T06:54:41.624Z,26.65
2018-07-28T06:57:10.283Z,26.85
2018-07-28T06:59:38.976Z,26.83
2018-07-28T07:02:07.925Z,26.88
2018-07-28T07:04:36.639Z,26.82
2018-07-28T07:07:05.346Z,26.78
2018-07-28T07:09:34.010Z,26.88
2018-07-28T07:12:02.629Z,26.78
2018-07-28T07:14:31.300Z,26.61
2018-07-28T07:16:59.958Z,26.44
2018-07-28T07:19:29.341Z,26.40
2018-07-28T07:21:58.148Z,26.22
2018-07-28T07:24:26.783Z,26.12
2018-07-28T07:26:55.516Z,25.94
2018-07-28T07:29:24.252Z,25.78
2018-07-28T07:31:53.007Z,25.76
2018-07-28T07:34:21.622Z,25.62
2018-07-28T07:36:50.230Z,25.46
2018-07-28T07:39:19.683Z,25.48
2018-07-28T07:41:48.383Z,25.55
2018-07-28T07:44:17.730Z,25.61
2018-07-28T07:46:47.418Z,25.61
2018-07-28T07:49:16.064Z,25.41
2018-07-28T07:51:44.723Z,25.51
2018-07-28T07:54:14.112Z,25.49
2018-07-28T07:56:42.759Z,25.21
2018-07-28T07:59:11.772Z,25.25
2018-07-28T08:01:40.473Z,25.10
2018-07-28T08:04:09.283Z,25.14
2018-07-28T08:06:38.333Z,25.21
2018-07-28T08:09:08.896Z,25.20
2018-07-28T08:11:37.695Z,25.13
2018-07-28T08:14:06.389Z,25.16
2018-07-28T08:16:35.034Z,25.16
2018-07-28T08:19:04.112Z,25.25
2018-07-28T08:21:33.053Z,25.41
2018-07-28T08:24:02.502Z,25.58
2018-07-28T08:26:31.197Z,25.76
2018-07-28T08:29:00.109Z,25.92
2018-07-28T08:31:28.830Z,26.16
2018-07-28T08:33:57.636Z,26.35
2018-07-28T08:36:26.348Z,26.34
2018-07-28T08:38:55.298Z,26.01
2018-07-28T08:41:23.998Z,25.60
2018-07-28T08:43:52.681Z,25.42
2018-07-28T08:46:22.022Z,25.64
2018-07-28T08:48:50.597Z,25.86
2018-07-28T08:51:19.422Z,26.10
2018-07-28T08:53:48.062Z,26.17
2018-07-28T08:56:16.731Z,26.35
2018-07-28T08:58:45.408Z,26.48
2018-07-28T09:01:14.103Z,26.53
2018-07-28T09:03:43.467Z,26.46
2018-07-28T09:06:12.169Z,26.61
2018-07-28T09:08:40.882Z,26.51
2018-07-28T09:11:09.572Z,26.50
2018-07-28T09:13:40.057Z,26.46
2018-07-28T09:16:09.122Z,26.40
2018-07-28T09:18:38.231Z,26.57
2018-07-28T09:21:07.737Z,26.94
2018-07-28T09:23:36.724Z,27.17
2018-07-28T09:26:06.212Z,27.49
2018-07-28T09:28:34.933Z,27.51
2018-07-28T09:31:03.697Z,27.59
2018-07-28T09:33:32.764Z,27.92
2018-07-28T09:36:01.615Z,28.14
2018-07-28T09:38:30.361Z,28.43
2018-07-28T09:40:59.837Z,28.61
2018-07-28T09:43:28.981Z,28.49
2018-07-28T09:45:58.418Z,28.54
2018-07-28T09:48:27.817Z,28.79
2018-07-28T09:50:56.440Z,28.90
2018-07-28T09:53:25.204Z,28.82
2018-07-28T09:55:53.849Z,28.83
2018-07-28T09:58:22.940Z,28.85
2018-07-28T10:00:57.093Z,29.02
2018-07-28T10:03:26.495Z,29.00
2018-07-28T10:05:55.248Z,29.02
2018-07-28T10:08:23.970Z,28.90
2018-07-28T10:10:52.845Z,28.79
2018-07-28T10:13:21.724Z,28.78
2018-07-28T10:15:50.902Z,28.82
2018-07-28T10:18:19.622Z,28.96
2018-07-28T10:20:49.548Z,29.19
2018-07-28T10:23:18.523Z,29.37
2018-07-28T10:25:47.337Z,29.26
2018-07-28T10:28:16.476Z,29.17
2018-07-28T10:30:46.189Z,29.11
2018-07-28T10:33:14.943Z,28.99
2018-07-28T10:35:43.704Z,28.99
2018-07-28T10:38:12.323Z,29.02
2018-07-28T10:40:40.951Z,29.05
2018-07-28T10:43:09.655Z,29.08
2018-07-28T10:45:38.400Z,29.40
2018-07-28T10:48:07.767Z,29.34
2018-07-28T10:50:36.362Z,29.46
2018-07-28T10:53:05.116Z,29.53
2018-07-28T10:55:33.819Z,29.78
2018-07-28T10:58:02.454Z,29.93
2018-07-28T11:00:31.330Z,30.10
2018-07-28T11:02:59.937Z,30.08
2018-07-28T11:05:29.533Z,29.91
2018-07-28T11:07:58.145Z,29.82
2018-07-28T11:10:26.806Z,30.00
2018-07-28T11:12:55.414Z,30.20
2018-07-28T11:15:24.129Z,30.32
2018-07-28T11:17:52.763Z,30.39
2018-07-28T11:20:21.389Z,30.47
2018-07-28T11:22:50.022Z,30.56
2018-07-28T11:25:18.699Z,30.72
2018-07-28T11:27:47.439Z,30.59
2018-07-28T11:30:16.261Z,30.69
2018-07-28T11:32:56.757Z,31.00
2018-07-28T11:35:36.644Z,31.26
2018-07-28T11:38:41.842Z,31.02
2018-07-28T11:41:21.889Z,31.21
2018-07-28T11:44:01.637Z,31.35
2018-07-28T11:46:30.265Z,31.56
2018-07-28T11:48:58.836Z,31.66
2018-07-28T11:51:27.997Z,31.70
2018-07-28T11:53:56.659Z,31.84
2018-07-28T11:56:25.302Z,31.81
2018-07-28T11:58:53.935Z,31.73
2018-07-28T12:01:23.127Z,31.55
2018-07-28T12:03:51.764Z,31.70
2018-07-28T12:06:21.033Z,31.79
2018-07-28T12:08:49.752Z,31.65
2018-07-28T12:11:18.560Z,31.63
2018-07-28T12:13:47.141Z,31.64
2018-07-28T12:16:15.749Z,31.44
2018-07-28T12:18:44.435Z,31.57
2018-07-28T12:21:13.225Z,31.69
2018-07-28T12:23:42.204Z,31.98
2018-07-28T12:26:10.787Z,32.15
2018-07-28T12:28:40.112Z,32.18
2018-07-28T12:31:09.519Z,32.10
2018-07-28T12:33:39.559Z,31.98
2018-07-28T12:36:08.740Z,31.85
2018-07-28T12:38:37.473Z,31.76
2018-07-28T12:41:06.271Z,31.58
2018-07-28T12:43:35.093Z,31.22
2018-07-28T12:46:03.761Z,31.39
2018-07-28T12:48:32.487Z,31.26
2018-07-28T12:51:01.341Z,31.15
2018-07-28T12:53:29.946Z,31.19
2018-07-28T12:55:58.611Z,31.44
2018-07-28T12:58:27.305Z,32.57
2018-07-28T13:00:55.954Z,34.25
2018-07-28T13:03:25.223Z,35.38
2018-07-28T13:05:53.934Z,35.39
2018-07-28T13:08:23.296Z,34.62
2018-07-28T13:10:51.966Z,33.53
2018-07-28T13:13:20.582Z,32.90
2018-07-28T13:15:49.230Z,32.60
2018-07-28T13:18:18.698Z,32.09
2018-07-28T13:20:47.445Z,32.13
2018-07-28T13:23:16.116Z,32.89
2018-07-28T13:25:44.767Z,33.63
2018-07-28T13:28:13.400Z,34.62
2018-07-28T13:30:42.413Z,35.18
2018-07-28T13:33:11.016Z,35.78
2018-07-28T13:35:40.721Z,35.49
2018-07-28T13:38:09.790Z,35.04
2018-07-28T13:40:38.639Z,35.40
2018-07-28T13:43:07.353Z,35.35
2018-07-28T13:45:35.984Z,34.74
2018-07-28T13:48:04.957Z,34.38
2018-07-28T13:50:33.684Z,34.61
2018-07-28T13:53:02.465Z,34.60
2018-07-28T13:55:31.081Z,33.40
2018-07-28T13:57:59.751Z,33.16
2018-07-28T14:00:28.813Z,33.41
2018-07-28T14:02:57.776Z,33.53
2018-07-28T14:05:26.402Z,33.46
2018-07-28T14:07:55.039Z,33.20
2018-07-28T14:10:23.670Z,33.13
2018-07-28T14:12:52.325Z,33.08
2018-07-28T14:15:21.113Z,32.76
2018-07-28T14:17:49.858Z,32.13
2018-07-28T14:20:18.570Z,31.77
2018-07-28T14:22:47.649Z,31.66
2018-07-28T14:25:16.409Z,31.62
2018-07-28T14:27:45.059Z,31.31
2018-07-28T14:30:13.877Z,31.06
2018-07-28T14:32:42.591Z,30.88
2018-07-28T14:35:12.837Z,30.39
2018-07-28T14:37:43.645Z,30.47
2018-07-28T14:40:12.286Z,30.11
2018-07-28T14:42:40.925Z,30.06
2018-07-28T14:45:11.157Z,30.00
2018-07-28T14:47:40.167Z,29.90
2018-07-28T14:50:08.883Z,30.00
2018-07-28T14:52:37.584Z,29.83
2018-07-28T14:55:06.381Z,29.83
2018-07-28T14:57:35.082Z,29.58
2018-07-28T15:00:03.930Z,29.49
2018-07-28T15:02:32.602Z,29.44
2018-07-28T15:05:01.268Z,29.45
2018-07-28T15:07:30.735Z,29.37
2018-07-28T15:09:59.353Z,29.03
2018-07-28T15:12:28.655Z,28.97
2018-07-28T15:14:57.816Z,29.13
2018-07-28T15:17:26.414Z,29.05
2018-07-28T15:19:55.988Z,29.15
2018-07-28T15:22:31.167Z,29.05
2018-07-28T15:25:00.942Z,29.21
2018-07-28T15:27:29.732Z,29.17
2018-07-28T15:29:59.729Z,29.13
2018-07-28T15:32:29.412Z,28.98
2018-07-28T15:34:58.283Z,29.07
2018-07-28T15:37:27.873Z,29.10
2018-07-28T15:39:56.636Z,29.15
2018-07-28T15:42:25.422Z,29.24
2018-07-28T15:44:54.193Z,29.25
2018-07-28T15:47:22.932Z,29.27
2018-07-28T15:49:51.946Z,29.30
2018-07-28T15:52:20.741Z,29.33
2018-07-28T15:54:50.163Z,29.06
2018-07-28T15:57:19.190Z,28.95
2018-07-28T15:59:49.381Z,28.77
2018-07-28T16:02:18.361Z,28.55
2018-07-28T16:04:47.634Z,28.57
2018-07-28T16:07:17.379Z,28.67
2018-07-28T16:09:46.036Z,28.74
2018-07-28T16:12:14.774Z,28.62
2018-07-28T16:14:43.818Z,28.34
2018-07-28T16:17:12.564Z,28.30
2018-07-28T16:19:41.178Z,28.28
2018-07-28T16:22:09.880Z,28.31
2018-07-28T16:24:38.561Z,28.17
2018-07-28T16:27:07.235Z,28.09
2018-07-28T16:29:35.892Z,28.06
2018-07-28T16:32:04.814Z,28.20
2018-07-28T16:34:33.481Z,28.26
2018-07-28T16:37:02.902Z,27.82
2018-07-28T16:39:31.629Z,28.06
2018-07-28T16:42:00.335Z,28.08
2018-07-28T16:44:29.847Z,27.94
2018-07-28T16:46:59.282Z,27.79
2018-07-28T16:49:28.085Z,27.88
2018-07-28T16:51:56.739Z,27.82
2018-07-28T16:54:25.512Z,27.84
2018-07-28T16:56:57.432Z,27.86
2018-07-28T16:59:28.525Z,27.71
2018-07-28T17:01:58.636Z,27.86
2018-07-28T17:04:34.508Z,27.81
2018-07-28T17:07:10.959Z,27.65
2018-07-28T17:09:40.591Z,27.63
2018-07-28T17:12:11.413Z,27.61
2018-07-28T17:15:03.755Z,27.57
2018-07-28T17:17:33.563Z,27.63
2018-07-28T17:20:04.121Z,27.44
2018-07-28T17:27:57.086Z,27.51
2018-07-28T17:30:27.644Z,27.61
2018-07-28T17:32:58.658Z,26.83
2018-07-28T17:35:30.329Z,27.56
2018-07-28T17:37:59.498Z,27.14
2018-07-28T17:43:21.676Z,26.56
2018-07-28T17:45:50.555Z,26.48
2018-07-28T17:48:19.360Z,26.73
2018-07-28T17:50:48.061Z,26.69
2018-07-28T17:53:16.766Z,26.91
2018-07-28T17:55:46.136Z,26.96
2018-07-28T17:58:15.333Z,26.75
2018-07-28T18:00:44.039Z,26.56
2018-07-28T18:03:12.781Z,26.40
2018-07-28T18:05:42.128Z,26.41
2018-07-28T18:08:10.794Z,26.49
2018-07-28T18:10:40.405Z,26.43
2018-07-28T18:13:09.306Z,26.41
2018-07-28T18:15:38.247Z,26.41
2018-07-28T18:18:06.992Z,26.44
2018-07-28T18:20:36.081Z,26.10
2018-07-28T18:23:05.330Z,25.91
2018-07-28T18:25:34.431Z,25.81
2018-07-28T18:28:03.441Z,25.79
2018-07-28T18:30:32.192Z,25.96
2018-07-28T18:33:01.085Z,25.89
2018-07-28T18:35:29.873Z,26.02
2018-07-28T18:37:59.437Z,25.95
2018-07-28T18:40:29.023Z,26.00
2018-07-28T18:42:58.085Z,25.81
2018-07-28T18:45:27.723Z,25.55
2018-07-28T18:47:56.544Z,25.65
2018-07-28T18:50:25.277Z,25.56
2018-07-28T18:52:54.085Z,25.58
2018-07-28T18:55:23.611Z,25.59
2018-07-28T18:57:52.325Z,25.65
2018-07-28T19:00:21.735Z,25.65
2018-07-28T19:02:50.468Z,25.60
2018-07-28T19:05:19.260Z,25.75
2018-07-28T19:07:48.095Z,25.92
2018-07-28T19:10:16.860Z,26.00
2018-07-28T19:12:50.922Z,26.06
2018-07-28T19:15:19.721Z,25.96
2018-07-28T19:18:53.188Z,25.95
2018-07-28T19:21:21.891Z,25.83
2018-07-28T19:23:55.992Z,25.69
2018-07-28T19:26:24.716Z,25.75
2018-07-28T19:28:58.732Z,25.80
2018-07-28T19:31:27.459Z,25.80
2018-07-28T19:33:56.191Z,25.87
2018-07-28T19:36:30.103Z,25.90
2018-07-28T19:38:58.885Z,25.86
2018-07-28T19:41:27.617Z,25.87
2018-07-28T19:43:56.418Z,25.76
2018-07-28T19:46:25.173Z,25.77
2018-07-28T19:48:54.118Z,25.81
2018-07-28T19:51:22.895Z,25.70
2018-07-28T19:53:51.640Z,25.59
2018-07-28T19:56:20.930Z,25.75
2018-07-28T19:58:49.742Z,25.72
2018-07-28T20:01:18.517Z,25.74
2018-07-28T20:03:47.335Z,25.74
2018-07-28T20:06:16.138Z,25.68
2018-07-28T20:08:44.850Z,25.70
2018-07-28T20:11:14.278Z,25.73
2018-07-28T20:13:43.016Z,25.76
2018-07-28T20:16:11.800Z,25.72
2018-07-28T20:18:40.856Z,25.61
2018-07-28T20:21:09.760Z,25.55
2018-07-28T20:23:38.499Z,25.53
2018-07-28T20:26:08.214Z,25.48
2018-07-28T20:28:37.255Z,25.34
2018-07-28T20:31:06.000Z,25.27
2018-07-28T20:33:34.815Z,25.36
2018-07-28T20:36:03.738Z,25.39
2018-07-28T20:38:32.473Z,25.42
2018-07-28T20:41:01.140Z,25.44
2018-07-28T20:43:30.417Z,25.11
2018-07-28T20:45:59.238Z,25.16
2018-07-28T20:48:28.769Z,25.19
2018-07-28T20:50:57.837Z,25.19
2018-07-28T20:53:31.078Z,25.24
2018-07-28T20:55:59.884Z,25.25
2018-07-28T20:58:28.622Z,25.21
2018-07-28T21:00:57.711Z,25.29
2018-07-28T21:03:27.020Z,25.11
2018-07-28T21:05:55.824Z,25.17
2018-07-28T21:08:24.707Z,25.15
2018-07-28T21:10:53.472Z,24.84
2018-07-28T21:13:22.649Z,24.84
2018-07-28T21:15:51.383Z,24.88
2018-07-28T21:18:20.484Z,24.92
2018-07-28T21:20:49.371Z,24.90
2018-07-28T21:23:18.865Z,24.91
2018-07-28T21:25:47.620Z,24.90
2018-07-28T21:28:16.332Z,24.91
2018-07-28T21:30:45.921Z,24.91
2018-07-28T21:33:14.793Z,24.91
2018-07-28T21:35:43.513Z,24.73
2018-07-28T21:38:12.483Z,24.63
2018-07-28T21:40:41.263Z,24.62
2018-07-28T21:43:10.025Z,24.63
2018-07-28T21:45:38.954Z,24.64
2018-07-28T21:48:07.776Z,24.66
2018-07-28T21:50:37.130Z,24.39
2018-07-28T21:53:06.011Z,24.38
2018-07-28T21:55:34.747Z,24.05
2018-07-28T21:58:10.080Z,23.93
2018-07-28T22:00:44.197Z,24.07
2018-07-28T22:03:13.232Z,24.11
2018-07-28T22:05:42.231Z,24.22
2018-07-28T22:08:10.976Z,24.28
2018-07-28T22:10:39.693Z,24.29
2018-07-28T22:13:08.857Z,24.37
2018-07-28T22:15:38.431Z,24.36
2018-07-28T22:18:07.657Z,24.44
2018-07-28T22:20:37.178Z,24.50
2018-07-28T22:23:06.072Z,24.51
2018-07-28T22:25:34.834Z,24.45
2018-07-28T22:28:03.601Z,24.44
2018-07-28T22:30:33.412Z,24.45
2018-07-28T22:33:02.275Z,24.41
2018-07-28T22:35:31.484Z,24.33
2018-07-28T22:38:00.689Z,24.35
2018-07-28T22:40:29.424Z,24.29
2018-07-28T22:42:58.193Z,24.19
2018-07-28T22:45:26.810Z,24.18
2018-07-28T22:47:55.505Z,24.28
2018-07-28T22:50:24.210Z,24.30
2018-07-28T22:52:52.955Z,24.32
2018-07-28T22:55:22.884Z,24.37
2018-07-28T22:57:51.618Z,24.43
2018-07-28T23:00:20.235Z,24.49
2018-07-28T23:02:49.310Z,24.54
2018-07-28T23:05:18.921Z,24.52
2018-07-28T23:07:47.642Z,24.51
2018-07-28T23:10:16.543Z,24.51
2018-07-28T23:12:45.273Z,24.49
2018-07-28T23:15:13.924Z,24.53
2018-07-28T23:17:43.466Z,24.49
2018-07-28T23:20:15.122Z,24.50
2018-07-28T23:22:43.991Z,24.53
2018-07-28T23:25:12.656Z,24.55
2018-07-28T23:27:41.309Z,24.55
2018-07-28T23:30:12.381Z,24.52
2018-07-28T23:32:41.711Z,24.42
2018-07-28T23:35:10.363Z,24.35
2018-07-28T23:37:39.062Z,24.32
2018-07-28T23:40:07.866Z,24.28
2018-07-28T23:42:37.557Z,24.25
2018-07-28T23:45:06.562Z,24.01
2018-07-28T23:47:35.332Z,24.08
2018-07-28T23:50:05.208Z,24.04
2018-07-28T23:52:42.363Z,23.96
2018-07-28T23:55:11.242Z,23.74
2018-07-28T23:57:40.105Z,23.78
